createdAt,value
2022-08-26T00:01:17.980Z,100.00
2022-08-26T00:03:54.556Z,100.00
2022-08-26T00:06:27.603Z,100.00
2022-08-26T00:08:57.739Z,100.00
2022-08-26T00:11:27.863Z,100.00
2022-08-26T00:13:59.104Z,100.00
2022-08-26T00:16:31.597Z,100.00
2022-08-26T00:19:02.168Z,100.00
2022-08-26T00:21:34.917Z,100.00
2022-08-26T00:24:08.139Z,100.00
2022-08-26T00:26:38.926Z,100.00
2022-08-26T00:29:12.493Z,100.00
2022-08-26T00:31:45.109Z,100.00
2022-08-26T00:34:19.319Z,100.00
2022-08-26T00:36:52.455Z,100.00
2022-08-26T00:39:23.368Z,100.00
2022-08-26T00:41:53.781Z,100.00
2022-08-26T00:44:23.925Z,100.00
2022-08-26T00:46:58.473Z,100.00
2022-08-26T00:49:37.544Z,100.00
2022-08-26T00:52:13.046Z,100.00
2022-08-26T00:54:49.584Z,100.00
2022-08-26T00:57:21.679Z,100.00
2022-08-26T00:59:57.330Z,100.00
2022-08-26T01:02:28.996Z,100.00
2022-08-26T01:05:03.412Z,100.00
2022-08-26T01:07:37.936Z,100.00
2022-08-26T01:10:12.167Z,100.00
2022-08-26T01:12:45.997Z,100.00
2022-08-26T01:15:21.088Z,100.00
2022-08-26T01:17:51.711Z,100.00
2022-08-26T01:20:30.279Z,100.00
2022-08-26T01:23:05.692Z,100.00
2022-08-26T01:25:43.615Z,100.00
2022-08-26T01:28:17.605Z,100.00
2022-08-26T01:30:51.153Z,100.00
2022-08-26T01:33:28.121Z,100.00
2022-08-26T01:35:59.180Z,100.00
2022-08-26T01:38:32.881Z,100.00
2022-08-26T01:41:03.793Z,100.00
2022-08-26T01:43:48.440Z,100.00
2022-08-26T01:46:20.491Z,100.00
2022-08-26T01:48:52.349Z,100.00
2022-08-26T01:51:27.574Z,100.00
2022-08-26T01:54:01.689Z,100.00
2022-08-26T01:56:33.162Z,100.00
2022-08-26T01:59:12.222Z,100.00
2022-08-26T02:01:42.908Z,100.00
2022-08-26T02:04:19.492Z,100.00
2022-08-26T02:06:51.468Z,100.00
2022-08-26T02:09:25.968Z,100.00
2022-08-26T02:11:57.295Z,100.00
2022-08-26T02:14:31.699Z,100.00
2022-08-26T02:17:03.682Z,100.00
2022-08-26T02:19:40.389Z,100.00
2022-08-26T02:22:17.909Z,100.00
2022-08-26T02:24:53.372Z,100.00
2022-08-26T02:27:32.447Z,100.00
2022-08-26T02:30:13.007Z,100.00
2022-08-26T02:32:43.517Z,100.00
2022-08-26T02:35:20.015Z,100.00
2022-08-26T02:37:51.152Z,100.00
2022-08-26T02:40:26.936Z,100.00
2022-08-26T02:42:57.270Z,100.00
2022-08-26T02:45:29.265Z,100.00
2022-08-26T02:48:00.953Z,100.00
2022-08-26T02:50:31.152Z,100.00
2022-08-26T02:53:01.589Z,100.00
2022-08-26T02:55:35.681Z,100.00
2022-08-26T02:58:06.281Z,100.00
2022-08-26T03:00:52.612Z,100.00
2022-08-26T03:03:24.244Z,100.00
2022-08-26T03:05:54.518Z,100.00
2022-08-26T03:08:25.018Z,100.00
2022-08-26T03:10:58.176Z,100.00
2022-08-26T03:13:31.776Z,100.00
2022-08-26T03:16:04.604Z,100.00
2022-08-26T03:18:35.371Z,100.00
2022-08-26T03:21:09.101Z,100.00
2022-08-26T03:23:40.170Z,100.00
2022-08-26T03:26:15.355Z,100.00
2022-08-26T03:28:58.584Z,100.00
2022-08-26T03:31:28.910Z,100.00
2022-08-26T03:33:59.309Z,100.00
2022-08-26T03:36:30.274Z,100.00
2022-08-26T03:39:01.168Z,100.00
2022-08-26T03:41:34.734Z,100.00
2022-08-26T03:44:05.298Z,100.00
2022-08-26T03:46:36.577Z,100.00
2022-08-26T03:49:07.464Z,100.00
2022-08-26T03:51:39.949Z,100.00
2022-08-26T03:54:12.397Z,100.00
2022-08-26T03:56:46.593Z,100.00
2022-08-26T03:59:16.980Z,100.00
2022-08-26T04:01:47.211Z,100.00
2022-08-26T04:04:18.644Z,100.00
2022-08-26T04:06:53.251Z,100.00
2022-08-26T04:09:23.801Z,100.00
2022-08-26T04:11:59.212Z,100.00
2022-08-26T04:14:31.344Z,100.00
2022-08-26T04:17:05.077Z,100.00
2022-08-26T04:19:36.279Z,100.00
2022-08-26T04:22:06.591Z,100.00
2022-08-26T04:24:39.678Z,100.00
2022-08-26T04:27:12.506Z,100.00
2022-08-26T04:29:43.200Z,100.00
2022-08-26T04:32:13.340Z,100.00
2022-08-26T04:34:43.708Z,100.00
2022-08-26T04:37:15.258Z,100.00
2022-08-26T04:39:45.599Z,100.00
2022-08-26T04:42:25.872Z,100.00
2022-08-26T04:44:56.388Z,100.00
2022-08-26T04:47:31.688Z,100.00
2022-08-26T04:50:02.518Z,100.00
2022-08-26T04:52:32.714Z,100.00
2022-08-26T04:55:02.858Z,100.00
2022-08-26T04:57:36.094Z,100.00
2022-08-26T05:00:08.185Z,100.00
2022-08-26T05:02:38.388Z,100.00
2022-08-26T05:05:10.227Z,100.00
2022-08-26T05:07:40.346Z,100.00
2022-08-26T05:10:12.464Z,100.00
2022-08-26T05:12:47.684Z,100.00
2022-08-26T05:15:18.206Z,100.00
2022-08-26T05:17:53.670Z,100.00
2022-08-26T05:20:26.092Z,100.00
2022-08-26T05:22:56.561Z,100.00
2022-08-26T05:25:27.386Z,100.00
2022-08-26T05:28:00.539Z,100.00
2022-08-26T05:30:33.139Z,100.00
2022-08-26T05:33:05.148Z,100.00
2022-08-26T05:35:36.178Z,100.00
2022-08-26T05:38:12.671Z,100.00
2022-08-26T05:40:45.524Z,100.00
2022-08-26T05:43:20.214Z,100.00
2022-08-26T05:45:53.041Z,100.00
2022-08-26T05:48:24.611Z,99.29
2022-08-26T05:50:56.191Z,98.26
2022-08-26T05:53:26.364Z,98.76
2022-08-26T05:55:58.427Z,96.88
2022-08-26T05:58:32.620Z,95.72
2022-08-26T06:01:05.393Z,94.71
2022-08-26T06:03:37.516Z,94.78
2022-08-26T06:06:09.826Z,93.55
2022-08-26T06:08:40.902Z,92.32
2022-08-26T06:11:18.440Z,91.93
2022-08-26T06:13:51.567Z,90.87
2022-08-26T06:16:23.977Z,89.05
2022-08-26T06:18:56.094Z,87.30
2022-08-26T06:21:29.084Z,85.32
2022-08-26T06:24:14.103Z,84.01
2022-08-26T06:26:46.670Z,83.78
2022-08-26T06:29:25.595Z,83.29
2022-08-26T06:31:56.625Z,82.15
2022-08-26T06:34:29.712Z,83.16
2022-08-26T06:37:02.771Z,82.82
2022-08-26T06:39:34.266Z,83.04
2022-08-26T06:42:06.327Z,83.08
2022-08-26T06:44:41.027Z,83.04
2022-08-26T06:47:11.454Z,83.62
2022-08-26T06:49:41.596Z,84.25
2022-08-26T06:52:11.892Z,83.05
2022-08-26T06:54:43.622Z,82.63
2022-08-26T06:57:16.710Z,82.19
2022-08-26T06:59:51.181Z,82.71
2022-08-26T07:02:21.465Z,81.34
2022-08-26T07:04:51.625Z,81.30
2022-08-26T07:07:24.585Z,79.72
2022-08-26T07:09:55.233Z,78.21
2022-08-26T07:12:25.983Z,79.01
2022-08-26T07:14:58.953Z,78.37
2022-08-26T07:17:29.391Z,77.51
2022-08-26T07:20:00.183Z,76.73
2022-08-26T07:22:30.610Z,75.38
2022-08-26T07:25:00.755Z,72.73
2022-08-26T07:27:30.900Z,74.31
2022-08-26T07:30:03.995Z,72.36
2022-08-26T07:32:33.841Z,71.37
2022-08-26T07:35:04.141Z,70.85
2022-08-26T07:37:39.077Z,69.02
2022-08-26T07:40:12.107Z,68.96
2022-08-26T07:42:42.966Z,68.57
2022-08-26T07:45:16.038Z,72.72
2022-08-26T07:47:46.519Z,69.54
2022-08-26T07:50:17.277Z,67.96
2022-08-26T07:52:47.875Z,68.12
2022-08-26T07:55:18.497Z,68.50
2022-08-26T07:57:48.813Z,68.98
2022-08-26T08:00:21.867Z,69.17
2022-08-26T08:02:52.305Z,68.86
2022-08-26T08:05:33.338Z,67.97
2022-08-26T08:08:27.539Z,68.41
2022-08-26T08:10:55.410Z,68.20
2022-08-26T08:13:26.649Z,69.51
2022-08-26T08:15:59.458Z,68.20
2022-08-26T08:18:29.628Z,68.12
2022-08-26T08:21:21.458Z,67.21
2022-08-26T08:23:53.999Z,66.39
2022-08-26T08:26:24.573Z,65.99
2022-08-26T08:28:58.684Z,66.16
2022-08-26T08:31:56.036Z,67.29
2022-08-26T08:34:23.677Z,65.41
2022-08-26T08:36:56.383Z,65.91
2022-08-26T08:39:27.027Z,63.77
2022-08-26T08:42:16.685Z,63.39
2022-08-26T08:44:52.401Z,63.54
2022-08-26T08:47:34.366Z,66.20
2022-08-26T08:50:13.617Z,64.72
2022-08-26T08:52:47.470Z,62.93
2022-08-26T08:55:19.273Z,63.81
2022-08-26T08:58:03.114Z,62.71
2022-08-26T09:00:44.442Z,62.83
2022-08-26T09:03:26.494Z,62.00
2022-08-26T09:05:57.044Z,62.65
2022-08-26T09:08:35.287Z,62.08
2022-08-26T09:11:06.879Z,60.85
2022-08-26T09:13:37.880Z,60.96
2022-08-26T09:16:16.188Z,61.05
2022-08-26T09:19:11.288Z,59.24
2022-08-26T09:21:41.516Z,59.33
2022-08-26T09:24:13.923Z,60.70
2022-08-26T09:26:49.783Z,58.80
2022-08-26T09:29:27.025Z,58.50
2022-08-26T09:32:21.312Z,58.43
2022-08-26T09:35:06.147Z,58.92
2022-08-26T09:37:39.830Z,56.50
2022-08-26T09:40:21.945Z,56.66
2022-08-26T09:43:10.209Z,59.54
2022-08-26T09:45:50.270Z,56.05
2022-08-26T09:48:31.816Z,56.78
2022-08-26T09:51:10.156Z,56.36
2022-08-26T09:53:54.214Z,55.46
2022-08-26T09:56:32.271Z,55.15
2022-08-26T09:59:04.027Z,56.19
2022-08-26T10:01:40.319Z,54.74
2022-08-26T10:04:14.950Z,52.47
2022-08-26T10:06:59.403Z,52.70
2022-08-26T10:09:30.884Z,53.50
2022-08-26T10:12:05.516Z,49.92
2022-08-26T10:14:39.498Z,50.12
2022-08-26T10:17:15.862Z,48.30
2022-08-26T10:19:57.166Z,48.58
2022-08-26T10:22:36.617Z,48.12
2022-08-26T10:25:11.166Z,49.56
2022-08-26T10:27:52.706Z,49.06
2022-08-26T10:30:26.176Z,47.49
2022-08-26T10:33:04.126Z,46.84
2022-08-26T10:35:36.304Z,47.31
2022-08-26T10:38:14.694Z,45.38
2022-08-26T10:40:55.305Z,44.04
2022-08-26T10:43:29.466Z,46.57
2022-08-26T10:46:04.170Z,44.85
2022-08-26T10:48:42.109Z,45.82
2022-08-26T10:51:14.416Z,44.64
2022-08-26T10:53:56.062Z,43.51
2022-08-26T10:56:42.269Z,43.45
2022-08-26T10:59:23.007Z,43.74
2022-08-26T11:02:00.893Z,43.11
2022-08-26T11:04:59.810Z,43.35
2022-08-26T11:07:43.717Z,41.93
2022-08-26T11:10:45.830Z,41.08
2022-08-26T11:13:18.761Z,40.82
2022-08-26T11:16:11.222Z,39.81
2022-08-26T11:18:54.811Z,40.76
2022-08-26T11:22:15.187Z,38.96
2022-08-26T11:25:02.741Z,41.02
2022-08-26T11:27:55.697Z,41.41
2022-08-26T11:30:47.862Z,39.06
2022-08-26T11:33:52.123Z,38.58
2022-08-26T11:36:43.887Z,39.85
2022-08-26T11:39:22.177Z,38.70
2022-08-26T11:41:54.344Z,38.80
2022-08-26T11:44:26.726Z,37.77
2022-08-26T11:47:03.266Z,38.57
2022-08-26T11:49:35.030Z,37.79
2022-08-26T11:52:20.899Z,39.99
2022-08-26T11:55:05.247Z,37.84
2022-08-26T11:57:38.095Z,37.53
2022-08-26T12:00:12.496Z,38.49
2022-08-26T12:02:47.356Z,39.58
2022-08-26T12:05:23.763Z,38.12
2022-08-26T12:07:55.337Z,36.57
2022-08-26T12:10:32.022Z,36.51
2022-08-26T12:13:03.355Z,36.49
2022-08-26T12:15:35.755Z,37.60
2022-08-26T12:18:29.713Z,37.42
2022-08-26T12:21:03.464Z,37.50
2022-08-26T12:23:44.531Z,37.87
2022-08-26T12:26:23.924Z,37.74
2022-08-26T12:28:58.164Z,36.29
2022-08-26T12:31:34.458Z,35.83
2022-08-26T12:34:17.554Z,37.96
2022-08-26T12:36:51.366Z,36.48
2022-08-26T12:39:29.997Z,35.18
2022-08-26T12:42:01.842Z,36.52
2022-08-26T12:44:53.745Z,36.58
2022-08-26T12:47:42.282Z,38.18
2022-08-26T12:50:22.744Z,37.00
2022-08-26T12:53:01.807Z,37.29
2022-08-26T12:55:42.328Z,34.38
2022-08-26T12:58:23.574Z,35.17
2022-08-26T13:00:56.144Z,34.71
2022-08-26T13:03:33.660Z,41.10
2022-08-26T13:06:19.801Z,37.23
2022-08-26T13:08:51.600Z,38.67
2022-08-26T13:11:24.966Z,36.15
2022-08-26T13:13:58.395Z,35.63
2022-08-26T13:16:29.183Z,37.21
2022-08-26T13:19:01.847Z,36.73
2022-08-26T13:21:37.338Z,35.90
2022-08-26T13:24:11.914Z,35.81
2022-08-26T13:26:42.922Z,35.17
2022-08-26T13:29:13.660Z,33.85
2022-08-26T13:31:45.736Z,34.07
2022-08-26T13:34:21.028Z,36.45
2022-08-26T13:36:56.452Z,38.02
2022-08-26T13:39:27.381Z,36.94
2022-08-26T13:41:58.082Z,35.85
2022-08-26T13:44:28.211Z,36.25
2022-08-26T13:46:58.385Z,35.86
2022-08-26T13:49:28.764Z,38.45
2022-08-26T13:52:03.819Z,38.23
2022-08-26T13:54:33.963Z,36.60
2022-08-26T13:57:04.371Z,36.38
2022-08-26T13:59:34.772Z,38.56
2022-08-26T14:02:07.079Z,38.06
2022-08-26T14:04:38.750Z,39.07
2022-08-26T14:07:11.626Z,36.38
2022-08-26T14:09:41.736Z,37.62
2022-08-26T14:12:12.226Z,36.90
2022-08-26T14:14:42.587Z,36.17
2022-08-26T14:17:13.128Z,36.96
2022-08-26T14:19:48.278Z,36.06
2022-08-26T14:22:23.666Z,35.24
2022-08-26T14:24:54.084Z,37.20
2022-08-26T14:27:24.209Z,37.07
2022-08-26T14:29:54.557Z,36.54
2022-08-26T14:32:28.964Z,35.72
2022-08-26T14:34:59.486Z,37.22
2022-08-26T14:37:32.300Z,36.51
2022-08-26T14:40:02.490Z,36.59
2022-08-26T14:42:34.200Z,37.66
2022-08-26T14:45:07.263Z,36.21
2022-08-26T14:47:37.485Z,37.36
2022-08-26T14:50:08.781Z,38.02
2022-08-26T14:52:53.647Z,36.77
2022-08-26T14:55:23.754Z,37.43
2022-08-26T14:57:54.153Z,38.77
2022-08-26T15:00:24.482Z,37.51
2022-08-26T15:02:54.857Z,39.22
2022-08-26T15:05:25.167Z,36.29
2022-08-26T15:07:57.893Z,38.60
2022-08-26T15:10:27.814Z,37.14
2022-08-26T15:12:57.988Z,37.63
2022-08-26T15:15:30.201Z,38.67
2022-08-26T15:18:01.610Z,40.62
2022-08-26T15:23:24.661Z,37.05
2022-08-26T15:25:55.102Z,40.52
2022-08-26T15:28:25.275Z,41.27
2022-08-26T15:30:55.784Z,40.18
2022-08-26T15:33:25.962Z,39.65
2022-08-26T15:35:56.118Z,40.27
2022-08-26T15:38:31.168Z,39.49
2022-08-26T15:41:03.213Z,42.28
2022-08-26T15:43:33.639Z,42.76
2022-08-26T15:46:04.084Z,44.12
2022-08-26T15:48:34.484Z,38.45
2022-08-26T15:51:06.460Z,39.93
2022-08-26T15:53:39.238Z,42.67
2022-08-26T15:56:09.900Z,43.32
2022-08-26T15:58:40.722Z,41.92
2022-08-26T16:01:11.655Z,39.39
2022-08-26T16:03:41.827Z,38.24
2022-08-26T16:06:15.829Z,39.75
2022-08-26T16:08:50.129Z,40.31
2022-08-26T16:11:20.742Z,40.98
2022-08-26T16:13:51.040Z,40.09
2022-08-26T16:16:21.835Z,41.50
2022-08-26T16:18:52.277Z,41.24
2022-08-26T16:21:24.525Z,42.81
2022-08-26T16:23:58.462Z,42.65
2022-08-26T16:26:33.054Z,42.50
2022-08-26T16:29:05.318Z,44.00
2022-08-26T16:31:35.598Z,45.67
2022-08-26T16:34:09.294Z,45.35
2022-08-26T16:36:40.708Z,44.64
2022-08-26T16:39:14.020Z,43.99
2022-08-26T16:41:44.419Z,44.02
2022-08-26T16:44:14.655Z,44.42
2022-08-26T16:46:45.773Z,44.99
2022-08-26T16:49:16.013Z,47.51
2022-08-26T16:51:46.958Z,47.63
2022-08-26T16:54:19.716Z,46.95
2022-08-26T16:56:49.799Z,47.33
2022-08-26T16:59:19.917Z,50.68
2022-08-26T17:01:50.064Z,52.14
2022-08-26T17:04:22.005Z,55.01
2022-08-26T17:06:52.183Z,55.70
2022-08-26T17:09:24.965Z,58.23
2022-08-26T17:11:55.225Z,57.06
2022-08-26T17:14:25.368Z,57.97
2022-08-26T17:16:55.529Z,56.77
2022-08-26T17:19:25.744Z,58.85
2022-08-26T17:21:55.945Z,59.98
2022-08-26T17:24:28.679Z,58.75
2022-08-26T17:26:58.825Z,60.96
2022-08-26T17:29:29.171Z,60.79
2022-08-26T17:31:59.335Z,61.48
2022-08-26T17:34:29.453Z,62.36
2022-08-26T17:36:59.567Z,64.24
2022-08-26T17:39:32.555Z,66.73
2022-08-26T17:42:02.343Z,66.66
2022-08-26T17:44:32.503Z,68.41
2022-08-26T17:47:02.708Z,70.41
2022-08-26T17:49:32.866Z,70.96
2022-08-26T17:52:03.312Z,72.48
2022-08-26T17:54:36.217Z,72.45
2022-08-26T17:57:06.461Z,73.24
2022-08-26T17:59:41.628Z,74.10
2022-08-26T18:02:11.776Z,76.74
2022-08-26T18:04:41.963Z,78.56
2022-08-26T18:07:12.253Z,80.95
2022-08-26T18:09:45.237Z,83.30
2022-08-26T18:12:15.732Z,83.32
2022-08-26T18:14:45.923Z,83.17
2022-08-26T18:17:19.405Z,85.11
2022-08-26T18:19:50.241Z,86.63
2022-08-26T18:22:23.373Z,85.95
2022-08-26T18:24:59.270Z,85.07
2022-08-26T18:27:29.749Z,84.94
2022-08-26T18:30:00.240Z,84.77
2022-08-26T18:32:30.521Z,82.74
2022-08-26T18:35:00.740Z,83.71
2022-08-26T18:37:31.813Z,82.39
2022-08-26T18:40:04.868Z,84.78
2022-08-26T18:42:34.756Z,85.15
2022-08-26T18:45:05.168Z,86.54
2022-08-26T18:47:36.669Z,87.92
2022-08-26T18:50:08.340Z,88.74
2022-08-26T18:52:38.489Z,88.28
2022-08-26T18:55:11.794Z,88.42
2022-08-26T18:57:41.978Z,92.61
2022-08-26T19:00:13.845Z,93.23
2022-08-26T19:02:47.061Z,96.14
2022-08-26T19:05:22.475Z,92.93
2022-08-26T19:07:52.649Z,92.97
2022-08-26T19:10:25.389Z,91.57
2022-08-26T19:13:00.076Z,90.71
2022-08-26T19:15:31.458Z,92.17
2022-08-26T19:18:01.963Z,89.77
2022-08-26T19:20:32.211Z,85.51
2022-08-26T19:23:10.497Z,80.56
2022-08-26T19:25:56.353Z,79.32
2022-08-26T19:28:26.516Z,75.18
2022-08-26T19:30:56.970Z,73.95
2022-08-26T19:33:27.306Z,73.31
2022-08-26T19:35:58.942Z,76.33
2022-08-26T19:38:29.101Z,71.12
2022-08-26T19:41:01.878Z,72.13
2022-08-26T19:43:32.192Z,72.11
2022-08-26T19:46:02.437Z,70.35
2022-08-26T19:48:32.583Z,71.11
2022-08-26T19:51:02.708Z,75.20
2022-08-26T19:53:33.268Z,72.51
2022-08-26T19:56:06.375Z,72.48
2022-08-26T19:58:36.684Z,77.06
2022-08-26T20:01:10.174Z,76.86
2022-08-26T20:03:40.762Z,78.73
2022-08-26T20:06:12.821Z,79.28
2022-08-26T20:08:44.644Z,77.43
2022-08-26T20:11:19.955Z,78.80
2022-08-26T20:13:50.954Z,80.31
2022-08-26T20:16:21.339Z,80.52
2022-08-26T20:19:03.848Z,81.25
2022-08-26T20:21:38.349Z,80.55
2022-08-26T20:24:15.447Z,80.42
2022-08-26T20:26:49.010Z,81.02
2022-08-26T20:29:21.724Z,81.70
2022-08-26T20:31:52.520Z,82.24
2022-08-26T20:34:23.638Z,81.48
2022-08-26T20:36:54.043Z,82.09
2022-08-26T20:39:24.644Z,85.25
2022-08-26T20:41:57.797Z,79.35
2022-08-26T20:44:27.995Z,81.56
2022-08-26T20:46:59.329Z,82.74
2022-08-26T20:49:30.473Z,82.48
2022-08-26T20:52:03.838Z,82.07
2022-08-26T20:54:34.434Z,81.99
2022-08-26T20:57:08.222Z,77.69
2022-08-26T20:59:38.665Z,77.36
2022-08-26T21:02:09.297Z,78.61
2022-08-26T21:04:40.583Z,77.94
2022-08-26T21:07:10.777Z,79.03
2022-08-26T21:09:41.439Z,79.69
2022-08-26T21:12:15.095Z,80.85
2022-08-26T21:14:49.036Z,79.17
2022-08-26T21:17:20.123Z,79.40
2022-08-26T21:19:50.311Z,79.00
2022-08-26T21:22:20.615Z,78.29
2022-08-26T21:24:50.801Z,78.78
2022-08-26T21:27:27.906Z,77.77
2022-08-26T21:29:59.949Z,78.89
2022-08-26T21:32:30.346Z,78.33
2022-08-26T21:35:02.538Z,78.86
2022-08-26T21:37:34.919Z,78.11
2022-08-26T21:40:05.673Z,77.89
2022-08-26T21:42:38.969Z,78.80
2022-08-26T21:45:10.159Z,80.46
2022-08-26T21:47:40.750Z,81.34
2022-08-26T21:50:12.232Z,82.54
2022-08-26T21:52:42.836Z,82.89
2022-08-26T21:55:13.462Z,83.32
2022-08-26T21:57:46.250Z,83.47
2022-08-26T22:00:17.770Z,84.18
2022-08-26T22:02:48.160Z,84.60
2022-08-26T22:05:18.918Z,84.74
2022-08-26T22:07:49.049Z,85.29
2022-08-26T22:10:19.273Z,86.10
2022-08-26T22:12:52.174Z,86.23
2022-08-26T22:15:26.024Z,87.33
2022-08-26T22:17:56.177Z,87.62
2022-08-26T22:20:26.548Z,87.28
2022-08-26T22:22:56.679Z,85.62
2022-08-26T22:25:26.804Z,86.96
2022-08-26T22:27:59.655Z,87.94
2022-08-26T22:30:32.986Z,88.41
2022-08-26T22:33:02.781Z,88.41
2022-08-26T22:35:33.619Z,89.41
2022-08-26T22:38:03.769Z,90.15
2022-08-26T22:40:35.606Z,91.59
2022-08-26T22:43:08.406Z,92.40
2022-08-26T22:45:44.729Z,94.63
2022-08-26T22:48:17.094Z,93.54
2022-08-26T22:50:49.381Z,94.41
2022-08-26T22:53:21.022Z,94.00
2022-08-26T22:55:51.652Z,95.46
2022-08-26T22:58:30.672Z,95.79
2022-08-26T23:01:02.409Z,95.75
2022-08-26T23:03:33.310Z,98.76
2022-08-26T23:06:03.597Z,98.25
2022-08-26T23:08:33.768Z,99.54
2022-08-26T23:11:05.339Z,100.00
2022-08-26T23:13:38.171Z,100.00
2022-08-26T23:16:11.984Z,100.00
2022-08-26T23:18:43.453Z,100.00
2022-08-26T23:21:13.629Z,100.00
2022-08-26T23:23:44.467Z,100.00
2022-08-26T23:26:17.641Z,100.00
2022-08-26T23:28:50.712Z,100.00
2022-08-26T23:31:20.848Z,100.00
2022-08-26T23:34:03.400Z,100.00
2022-08-26T23:36:34.944Z,100.00
2022-08-26T23:39:06.173Z,100.00
2022-08-26T23:41:36.308Z,100.00
2022-08-26T23:44:12.486Z,100.00
2022-08-26T23:46:42.656Z,100.00
2022-08-26T23:49:12.846Z,100.00
2022-08-26T23:51:55.328Z,100.00
2022-08-26T23:54:25.688Z,100.00
2022-08-26T23:56:55.842Z,100.00
2022-08-26T23:59:28.908Z,100.00
